sensor_id;sensor_type;location;lat;lon;timestamp;P1;durP1;ratioP1;P2;durP2;ratioP2
44098;SDS011;29762;50.086;14.364;2022-07-18T00:03:36;0.68;;;0.68;;
44098;SDS011;29762;50.086;14.364;2022-07-18T00:08:55;0.77;;;0.73;;
44098;SDS011;29762;50.086;14.364;2022-07-18T00:14:15;0.82;;;0.70;;
44098;SDS011;29762;50.086;14.364;2022-07-18T00:19:35;0.75;;;0.73;;
44098;SDS011;29762;50.086;14.364;2022-07-18T00:24:55;0.95;;;0.80;;
44098;SDS011;29762;50.086;14.364;2022-07-18T00:30:14;1.23;;;0.80;;
44098;SDS011;29762;50.086;14.364;2022-07-18T00:35:34;0.75;;;0.70;;
44098;SDS011;29762;50.086;14.364;2022-07-18T00:40:54;0.85;;;0.70;;
44098;SDS011;29762;50.086;14.364;2022-07-18T00:46:13;0.63;;;0.60;;
44098;SDS011;29762;50.086;14.364;2022-07-18T00:51:32;0.65;;;0.63;;
44098;SDS011;29762;50.086;14.364;2022-07-18T00:56:55;1.02;;;0.60;;
44098;SDS011;29762;50.086;14.364;2022-07-18T01:02:14;1.15;;;0.80;;
44098;SDS011;29762;50.086;14.364;2022-07-18T01:07:37;1.42;;;0.60;;
44098;SDS011;29762;50.086;14.364;2022-07-18T01:12:57;0.60;;;0.60;;
44098;SDS011;29762;50.086;14.364;2022-07-18T01:18:16;0.60;;;0.60;;
44098;SDS011;29762;50.086;14.364;2022-07-18T01:23:35;0.95;;;0.65;;
44098;SDS011;29762;50.086;14.364;2022-07-18T01:28:55;0.95;;;0.63;;
44098;SDS011;29762;50.086;14.364;2022-07-18T01:34:14;0.90;;;0.52;;
44098;SDS011;29762;50.086;14.364;2022-07-18T01:39:33;2.17;;;0.65;;
44098;SDS011;29762;50.086;14.364;2022-07-18T01:44:53;0.70;;;0.70;;
44098;SDS011;29762;50.086;14.364;2022-07-18T01:50:13;0.57;;;0.57;;
44098;SDS011;29762;50.086;14.364;2022-07-18T01:55:32;1.63;;;0.68;;
44098;SDS011;29762;50.086;14.364;2022-07-18T02:00:52;0.93;;;0.65;;
44098;SDS011;29762;50.086;14.364;2022-07-18T02:06:11;0.70;;;0.60;;
44098;SDS011;29762;50.086;14.364;2022-07-18T02:11:30;0.85;;;0.70;;
44098;SDS011;29762;50.086;14.364;2022-07-18T02:16:50;1.33;;;0.80;;
44098;SDS011;29762;50.086;14.364;2022-07-18T02:22:09;0.70;;;0.70;;
44098;SDS011;29762;50.086;14.364;2022-07-18T02:27:28;1.10;;;0.70;;
44098;SDS011;29762;50.086;14.364;2022-07-18T02:32:47;0.85;;;0.70;;
44098;SDS011;29762;50.086;14.364;2022-07-18T02:38:07;1.00;;;0.70;;
44098;SDS011;29762;50.086;14.364;2022-07-18T02:43:27;1.25;;;0.77;;
44098;SDS011;29762;50.086;14.364;2022-07-18T02:48:46;1.05;;;0.70;;
44098;SDS011;29762;50.086;14.364;2022-07-18T02:54:05;0.73;;;0.60;;
44098;SDS011;29762;50.086;14.364;2022-07-18T02:59:25;1.02;;;0.70;;
44098;SDS011;29762;50.086;14.364;2022-07-18T03:04:45;1.58;;;0.90;;
44098;SDS011;29762;50.086;14.364;2022-07-18T03:10:05;1.60;;;0.70;;
44098;SDS011;29762;50.086;14.364;2022-07-18T03:15:25;0.70;;;0.60;;
44098;SDS011;29762;50.086;14.364;2022-07-18T03:20:44;1.08;;;0.80;;
44098;SDS011;29762;50.086;14.364;2022-07-18T03:26:04;1.00;;;0.90;;
44098;SDS011;29762;50.086;14.364;2022-07-18T03:31:23;1.17;;;0.85;;
44098;SDS011;29762;50.086;14.364;2022-07-18T03:36:43;0.70;;;0.70;;
44098;SDS011;29762;50.086;14.364;2022-07-18T03:42:02;1.08;;;0.85;;
44098;SDS011;29762;50.086;14.364;2022-07-18T03:47:21;0.80;;;0.68;;
44098;SDS011;29762;50.086;14.364;2022-07-18T03:52:41;0.95;;;0.77;;
44098;SDS011;29762;50.086;14.364;2022-07-18T03:58:00;0.70;;;0.70;;
44098;SDS011;29762;50.086;14.364;2022-07-18T04:03:19;1.75;;;1.08;;
44098;SDS011;29762;50.086;14.364;2022-07-18T04:08:39;1.35;;;0.90;;
44098;SDS011;29762;50.086;14.364;2022-07-18T04:13:58;1.17;;;0.90;;
44098;SDS011;29762;50.086;14.364;2022-07-18T04:19:17;1.15;;;0.80;;
44098;SDS011;29762;50.086;14.364;2022-07-18T04:24:37;0.80;;;0.75;;
44098;SDS011;29762;50.086;14.364;2022-07-18T04:29:57;0.95;;;0.70;;
44098;SDS011;29762;50.086;14.364;2022-07-18T04:35:16;1.00;;;0.90;;
44098;SDS011;29762;50.086;14.364;2022-07-18T04:40:36;1.10;;;0.90;;
44098;SDS011;29762;50.086;14.364;2022-07-18T04:45:56;1.48;;;1.10;;
44098;SDS011;29762;50.086;14.364;2022-07-18T04:51:15;1.80;;;1.17;;
44098;SDS011;29762;50.086;14.364;2022-07-18T04:56:34;1.80;;;1.52;;
44098;SDS011;29762;50.086;14.364;2022-07-18T05:01:54;1.75;;;1.35;;
44098;SDS011;29762;50.086;14.364;2022-07-18T05:07:13;1.67;;;1.40;;
44098;SDS011;29762;50.086;14.364;2022-07-18T05:12:36;2.20;;;1.30;;
44098;SDS011;29762;50.086;14.364;2022-07-18T05:17:56;1.30;;;1.20;;
44098;SDS011;29762;50.086;14.364;2022-07-18T05:23:15;1.98;;;1.40;;
44098;SDS011;29762;50.086;14.364;2022-07-18T05:28:35;1.67;;;1.33;;
44098;SDS011;29762;50.086;14.364;2022-07-18T05:33:54;1.65;;;1.20;;
44098;SDS011;29762;50.086;14.364;2022-07-18T05:39:14;1.88;;;1.13;;
44098;SDS011;29762;50.086;14.364;2022-07-18T05:44:33;2.35;;;1.33;;
44098;SDS011;29762;50.086;14.364;2022-07-18T05:49:52;1.75;;;1.35;;
44098;SDS011;29762;50.086;14.364;2022-07-18T05:55:12;1.30;;;1.10;;
44098;SDS011;29762;50.086;14.364;2022-07-18T06:00:31;1.30;;;1.20;;
44098;SDS011;29762;50.086;14.364;2022-07-18T06:05:50;1.48;;;1.20;;
44098;SDS011;29762;50.086;14.364;2022-07-18T06:11:10;1.75;;;1.30;;
44098;SDS011;29762;50.086;14.364;2022-07-18T06:16:30;1.33;;;1.23;;
44098;SDS011;29762;50.086;14.364;2022-07-18T06:21:49;1.75;;;1.10;;
44098;SDS011;29762;50.086;14.364;2022-07-18T06:27:09;3.53;;;1.13;;
44098;SDS011;29762;50.086;14.364;2022-07-18T06:32:28;2.38;;;1.00;;
44098;SDS011;29762;50.086;14.364;2022-07-18T06:37:48;1.67;;;1.00;;
44098;SDS011;29762;50.086;14.364;2022-07-18T06:43:07;2.22;;;1.38;;
44098;SDS011;29762;50.086;14.364;2022-07-18T06:48:26;1.80;;;1.25;;
44098;SDS011;29762;50.086;14.364;2022-07-18T06:53:47;1.63;;;1.17;;
44098;SDS011;29762;50.086;14.364;2022-07-18T06:59:07;1.23;;;0.90;;
44098;SDS011;29762;50.086;14.364;2022-07-18T07:04:26;1.55;;;1.20;;
44098;SDS011;29762;50.086;14.364;2022-07-18T07:09:45;2.40;;;1.25;;
44098;SDS011;29762;50.086;14.364;2022-07-18T07:15:05;1.20;;;1.00;;
44098;SDS011;29762;50.086;14.364;2022-07-18T07:20:25;1.50;;;1.13;;
44098;SDS011;29762;50.086;14.364;2022-07-18T07:25:44;1.25;;;1.02;;
44098;SDS011;29762;50.086;14.364;2022-07-18T07:31:04;1.00;;;0.90;;
44098;SDS011;29762;50.086;14.364;2022-07-18T07:36:24;1.27;;;1.15;;
44098;SDS011;29762;50.086;14.364;2022-07-18T07:41:43;1.27;;;1.10;;
44098;SDS011;29762;50.086;14.364;2022-07-18T07:47:03;1.95;;;1.13;;
44098;SDS011;29762;50.086;14.364;2022-07-18T07:52:22;1.35;;;1.20;;
44098;SDS011;29762;50.086;14.364;2022-07-18T07:57:46;1.20;;;1.10;;
44098;SDS011;29762;50.086;14.364;2022-07-18T08:03:07;1.00;;;0.90;;
44098;SDS011;29762;50.086;14.364;2022-07-18T08:08:27;1.27;;;1.00;;
44098;SDS011;29762;50.086;14.364;2022-07-18T08:13:46;1.20;;;1.10;;
44098;SDS011;29762;50.086;14.364;2022-07-18T08:19:05;0.98;;;0.90;;
44098;SDS011;29762;50.086;14.364;2022-07-18T08:24:25;1.10;;;1.00;;
44098;SDS011;29762;50.086;14.364;2022-07-18T08:29:44;1.05;;;0.93;;
44098;SDS011;29762;50.086;14.364;2022-07-18T08:35:04;1.67;;;1.10;;
44098;SDS011;29762;50.086;14.364;2022-07-18T08:40:25;0.82;;;0.80;;
44098;SDS011;29762;50.086;14.364;2022-07-18T08:45:45;1.27;;;0.88;;
44098;SDS011;29762;50.086;14.364;2022-07-18T08:51:05;1.40;;;1.00;;
44098;SDS011;29762;50.086;14.364;2022-07-18T08:56:24;1.00;;;0.88;;
44098;SDS011;29762;50.086;14.364;2022-07-18T09:01:43;1.77;;;0.95;;
44098;SDS011;29762;50.086;14.364;2022-07-18T09:07:04;1.23;;;1.08;;
44098;SDS011;29762;50.086;14.364;2022-07-18T09:12:27;0.75;;;0.75;;
44098;SDS011;29762;50.086;14.364;2022-07-18T09:17:50;0.98;;;0.85;;
44098;SDS011;29762;50.086;14.364;2022-07-18T09:23:12;1.30;;;1.20;;
44098;SDS011;29762;50.086;14.364;2022-07-18T09:28:48;1.10;;;1.00;;
44098;SDS011;29762;50.086;14.364;2022-07-18T09:34:09;0.90;;;0.80;;
44098;SDS011;29762;50.086;14.364;2022-07-18T09:39:28;0.82;;;0.73;;
44098;SDS011;29762;50.086;14.364;2022-07-18T09:44:58;2.03;;;0.90;;
44098;SDS011;29762;50.086;14.364;2022-07-18T09:50:22;1.27;;;0.93;;
44098;SDS011;29762;50.086;14.364;2022-07-18T09:55:44;0.93;;;0.80;;
44098;SDS011;29762;50.086;14.364;2022-07-18T10:01:07;1.10;;;1.00;;
44098;SDS011;29762;50.086;14.364;2022-07-18T10:06:28;0.88;;;0.88;;
44098;SDS011;29762;50.086;14.364;2022-07-18T10:11:48;1.20;;;0.98;;
44098;SDS011;29762;50.086;14.364;2022-07-18T10:17:07;1.10;;;1.00;;
44098;SDS011;29762;50.086;14.364;2022-07-18T10:22:26;1.00;;;0.90;;
44098;SDS011;29762;50.086;14.364;2022-07-18T10:44:39;0.73;;;0.68;;
44098;SDS011;29762;50.086;14.364;2022-07-18T10:49:59;1.15;;;0.90;;
44098;SDS011;29762;50.086;14.364;2022-07-18T11:00:41;0.70;;;0.70;;
44098;SDS011;29762;50.086;14.364;2022-07-18T11:06:02;0.80;;;0.80;;
44098;SDS011;29762;50.086;14.364;2022-07-18T11:11:22;0.93;;;0.82;;
44098;SDS011;29762;50.086;14.364;2022-07-18T11:16:41;1.70;;;0.95;;
44098;SDS011;29762;50.086;14.364;2022-07-18T11:22:24;1.58;;;1.00;;
44098;SDS011;29762;50.086;14.364;2022-07-18T11:27:44;1.00;;;0.90;;
44098;SDS011;29762;50.086;14.364;2022-07-18T11:33:04;0.85;;;0.85;;
44098;SDS011;29762;50.086;14.364;2022-07-18T11:38:24;0.90;;;0.90;;
44098;SDS011;29762;50.086;14.364;2022-07-18T11:43:44;0.75;;;0.75;;
44098;SDS011;29762;50.086;14.364;2022-07-18T11:49:04;1.25;;;0.70;;
44098;SDS011;29762;50.086;14.364;2022-07-18T11:54:24;0.60;;;0.60;;
44098;SDS011;29762;50.086;14.364;2022-07-18T11:59:44;0.98;;;0.70;;
44098;SDS011;29762;50.086;14.364;2022-07-18T12:05:04;0.82;;;0.70;;
44098;SDS011;29762;50.086;14.364;2022-07-18T12:10:23;0.88;;;0.70;;
44098;SDS011;29762;50.086;14.364;2022-07-18T12:15:43;0.93;;;0.85;;
44098;SDS011;29762;50.086;14.364;2022-07-18T12:21:07;0.70;;;0.70;;
44098;SDS011;29762;50.086;14.364;2022-07-18T12:26:30;1.20;;;0.70;;
44098;SDS011;29762;50.086;14.364;2022-07-18T12:31:53;1.00;;;0.90;;
44098;SDS011;29762;50.086;14.364;2022-07-18T12:37:12;1.30;;;0.82;;
44098;SDS011;29762;50.086;14.364;2022-07-18T12:42:36;1.00;;;0.80;;
44098;SDS011;29762;50.086;14.364;2022-07-18T12:47:57;1.10;;;0.70;;
44098;SDS011;29762;50.086;14.364;2022-07-18T12:53:17;0.90;;;0.80;;
44098;SDS011;29762;50.086;14.364;2022-07-18T12:58:37;0.70;;;0.60;;
44098;SDS011;29762;50.086;14.364;2022-07-18T13:03:56;0.57;;;0.57;;
44098;SDS011;29762;50.086;14.364;2022-07-18T13:09:16;0.60;;;0.60;;
44098;SDS011;29762;50.086;14.364;2022-07-18T13:14:35;1.40;;;0.70;;
44098;SDS011;29762;50.086;14.364;2022-07-18T13:19:54;1.13;;;0.80;;
44098;SDS011;29762;50.086;14.364;2022-07-18T13:25:13;0.75;;;0.65;;
44098;SDS011;29762;50.086;14.364;2022-07-18T13:30:33;0.70;;;0.70;;
44098;SDS011;29762;50.086;14.364;2022-07-18T13:35:52;0.60;;;0.60;;
44098;SDS011;29762;50.086;14.364;2022-07-18T13:41:11;0.93;;;0.60;;
44098;SDS011;29762;50.086;14.364;2022-07-18T13:46:31;0.60;;;0.60;;
44098;SDS011;29762;50.086;14.364;2022-07-18T13:51:51;0.70;;;0.60;;
44098;SDS011;29762;50.086;14.364;2022-07-18T13:57:10;0.70;;;0.68;;
44098;SDS011;29762;50.086;14.364;2022-07-18T14:02:33;0.90;;;0.70;;
44098;SDS011;29762;50.086;14.364;2022-07-18T14:07:53;2.22;;;0.70;;
44098;SDS011;29762;50.086;14.364;2022-07-18T14:13:13;0.80;;;0.70;;
44098;SDS011;29762;50.086;14.364;2022-07-18T14:18:32;0.73;;;0.70;;
44098;SDS011;29762;50.086;14.364;2022-07-18T14:23:51;1.02;;;0.52;;
44098;SDS011;29762;50.086;14.364;2022-07-18T14:29:10;1.65;;;0.60;;
44098;SDS011;29762;50.086;14.364;2022-07-18T14:34:29;0.63;;;0.57;;
44098;SDS011;29762;50.086;14.364;2022-07-18T14:39:49;0.55;;;0.55;;
44098;SDS011;29762;50.086;14.364;2022-07-18T14:45:08;0.60;;;0.60;;
44098;SDS011;29762;50.086;14.364;2022-07-18T14:50:28;0.57;;;0.57;;
44098;SDS011;29762;50.086;14.364;2022-07-18T14:55:48;1.30;;;0.73;;
44098;SDS011;29762;50.086;14.364;2022-07-18T15:01:07;0.82;;;0.75;;
44098;SDS011;29762;50.086;14.364;2022-07-18T15:06:26;0.77;;;0.77;;
44098;SDS011;29762;50.086;14.364;2022-07-18T15:11:46;0.60;;;0.60;;
44098;SDS011;29762;50.086;14.364;2022-07-18T15:17:05;1.10;;;0.77;;
44098;SDS011;29762;50.086;14.364;2022-07-18T15:22:24;0.60;;;0.60;;
44098;SDS011;29762;50.086;14.364;2022-07-18T15:27:44;0.70;;;0.50;;
44098;SDS011;29762;50.086;14.364;2022-07-18T15:33:04;2.05;;;0.70;;
44098;SDS011;29762;50.086;14.364;2022-07-18T15:38:24;0.70;;;0.70;;
44098;SDS011;29762;50.086;14.364;2022-07-18T15:43:43;1.40;;;0.70;;
44098;SDS011;29762;50.086;14.364;2022-07-18T15:49:02;1.25;;;0.60;;
44098;SDS011;29762;50.086;14.364;2022-07-18T15:54:22;0.63;;;0.55;;
44098;SDS011;29762;50.086;14.364;2022-07-18T15:59:42;1.35;;;0.70;;
44098;SDS011;29762;50.086;14.364;2022-07-18T16:05:02;1.02;;;0.60;;
44098;SDS011;29762;50.086;14.364;2022-07-18T16:10:23;1.08;;;0.65;;
44098;SDS011;29762;50.086;14.364;2022-07-18T16:15:42;0.63;;;0.60;;
44098;SDS011;29762;50.086;14.364;2022-07-18T16:21:02;0.80;;;0.60;;
44098;SDS011;29762;50.086;14.364;2022-07-18T16:26:22;0.63;;;0.50;;
44098;SDS011;29762;50.086;14.364;2022-07-18T16:31:42;0.95;;;0.70;;
44098;SDS011;29762;50.086;14.364;2022-07-18T16:37:01;0.75;;;0.70;;
44098;SDS011;29762;50.086;14.364;2022-07-18T16:42:20;0.73;;;0.60;;
44098;SDS011;29762;50.086;14.364;2022-07-18T16:47:40;0.88;;;0.60;;
44098;SDS011;29762;50.086;14.364;2022-07-18T16:53:00;1.30;;;0.63;;
44098;SDS011;29762;50.086;14.364;2022-07-18T16:58:19;1.38;;;0.90;;
44098;SDS011;29762;50.086;14.364;2022-07-18T17:03:39;4.35;;;1.27;;
44098;SDS011;29762;50.086;14.364;2022-07-18T17:08:59;2.28;;;1.00;;
44098;SDS011;29762;50.086;14.364;2022-07-18T17:14:19;1.08;;;0.82;;
44098;SDS011;29762;50.086;14.364;2022-07-18T17:19:39;3.03;;;1.02;;
44098;SDS011;29762;50.086;14.364;2022-07-18T17:24:59;2.03;;;0.98;;
44098;SDS011;29762;50.086;14.364;2022-07-18T17:30:19;1.10;;;0.80;;
44098;SDS011;29762;50.086;14.364;2022-07-18T17:35:39;2.15;;;0.70;;
44098;SDS011;29762;50.086;14.364;2022-07-18T17:40:59;2.00;;;0.98;;
44098;SDS011;29762;50.086;14.364;2022-07-18T17:46:19;1.05;;;0.85;;
44098;SDS011;29762;50.086;14.364;2022-07-18T17:51:41;3.92;;;1.10;;
44098;SDS011;29762;50.086;14.364;2022-07-18T17:57:01;2.80;;;1.10;;
44098;SDS011;29762;50.086;14.364;2022-07-18T18:02:21;5.30;;;1.27;;
44098;SDS011;29762;50.086;14.364;2022-07-18T18:07:41;2.88;;;1.00;;
44098;SDS011;29762;50.086;14.364;2022-07-18T18:13:01;3.45;;;1.02;;
44098;SDS011;29762;50.086;14.364;2022-07-18T18:18:20;5.88;;;1.20;;
44098;SDS011;29762;50.086;14.364;2022-07-18T18:23:39;5.50;;;1.40;;
44098;SDS011;29762;50.086;14.364;2022-07-18T18:28:58;5.32;;;1.42;;
44098;SDS011;29762;50.086;14.364;2022-07-18T18:34:18;3.72;;;1.63;;
44098;SDS011;29762;50.086;14.364;2022-07-18T18:39:37;1.70;;;1.40;;
44098;SDS011;29762;50.086;14.364;2022-07-18T18:44:59;3.38;;;1.58;;
44098;SDS011;29762;50.086;14.364;2022-07-18T18:50:19;3.53;;;1.90;;
44098;SDS011;29762;50.086;14.364;2022-07-18T18:55:38;6.47;;;1.60;;
44098;SDS011;29762;50.086;14.364;2022-07-18T19:00:58;4.70;;;1.70;;
44098;SDS011;29762;50.086;14.364;2022-07-18T19:06:18;4.43;;;1.70;;
44098;SDS011;29762;50.086;14.364;2022-07-18T19:11:37;2.55;;;1.58;;
44098;SDS011;29762;50.086;14.364;2022-07-18T19:16:56;8.68;;;1.48;;
44098;SDS011;29762;50.086;14.364;2022-07-18T19:22:16;5.13;;;1.80;;
44098;SDS011;29762;50.086;14.364;2022-07-18T19:27:35;6.53;;;1.67;;
44098;SDS011;29762;50.086;14.364;2022-07-18T19:32:54;2.92;;;1.77;;
44098;SDS011;29762;50.086;14.364;2022-07-18T19:38:14;4.78;;;1.98;;
44098;SDS011;29762;50.086;14.364;2022-07-18T19:43:33;6.45;;;1.80;;
44098;SDS011;29762;50.086;14.364;2022-07-18T19:48:55;2.60;;;1.60;;
44098;SDS011;29762;50.086;14.364;2022-07-18T19:54:15;3.22;;;1.50;;
44098;SDS011;29762;50.086;14.364;2022-07-18T19:59:35;4.60;;;1.80;;
44098;SDS011;29762;50.086;14.364;2022-07-18T20:04:54;1.92;;;1.50;;
44098;SDS011;29762;50.086;14.364;2022-07-18T20:10:13;4.65;;;1.98;;
44098;SDS011;29762;50.086;14.364;2022-07-18T20:15:33;2.40;;;1.55;;
44098;SDS011;29762;50.086;14.364;2022-07-18T20:20:54;4.85;;;1.80;;
44098;SDS011;29762;50.086;14.364;2022-07-18T20:26:13;2.13;;;1.70;;
44098;SDS011;29762;50.086;14.364;2022-07-18T20:31:32;3.03;;;1.95;;
44098;SDS011;29762;50.086;14.364;2022-07-18T20:36:52;2.63;;;1.80;;
44098;SDS011;29762;50.086;14.364;2022-07-18T20:42:11;3.17;;;1.80;;
44098;SDS011;29762;50.086;14.364;2022-07-18T20:47:31;4.28;;;1.73;;
44098;SDS011;29762;50.086;14.364;2022-07-18T20:52:50;4.18;;;1.75;;
44098;SDS011;29762;50.086;14.364;2022-07-18T20:58:13;3.65;;;1.80;;
44098;SDS011;29762;50.086;14.364;2022-07-18T21:03:32;6.32;;;1.60;;
44098;SDS011;29762;50.086;14.364;2022-07-18T21:08:51;3.30;;;1.80;;
44098;SDS011;29762;50.086;14.364;2022-07-18T21:14:10;4.07;;;2.13;;
44098;SDS011;29762;50.086;14.364;2022-07-18T21:19:48;2.53;;;1.70;;
44098;SDS011;29762;50.086;14.364;2022-07-18T21:25:09;3.63;;;1.80;;
44098;SDS011;29762;50.086;14.364;2022-07-18T21:30:28;3.08;;;1.92;;
44098;SDS011;29762;50.086;14.364;2022-07-18T21:35:48;4.20;;;1.55;;
44098;SDS011;29762;50.086;14.364;2022-07-18T21:41:08;2.85;;;1.40;;
44098;SDS011;29762;50.086;14.364;2022-07-18T21:46:27;1.80;;;1.40;;
44098;SDS011;29762;50.086;14.364;2022-07-18T21:51:46;2.53;;;1.60;;
44098;SDS011;29762;50.086;14.364;2022-07-18T21:57:07;2.53;;;1.70;;
44098;SDS011;29762;50.086;14.364;2022-07-18T22:02:26;1.80;;;1.55;;
44098;SDS011;29762;50.086;14.364;2022-07-18T22:07:45;3.17;;;1.77;;
44098;SDS011;29762;50.086;14.364;2022-07-18T22:13:05;3.28;;;1.50;;
44098;SDS011;29762;50.086;14.364;2022-07-18T22:18:24;4.90;;;1.50;;
44098;SDS011;29762;50.086;14.364;2022-07-18T22:23:43;3.10;;;1.70;;
44098;SDS011;29762;50.086;14.364;2022-07-18T22:29:03;2.20;;;1.45;;
44098;SDS011;29762;50.086;14.364;2022-07-18T22:34:23;4.00;;;1.58;;
44098;SDS011;29762;50.086;14.364;2022-07-18T22:39:42;2.67;;;1.50;;
44098;SDS011;29762;50.086;14.364;2022-07-18T22:45:01;1.52;;;1.42;;
44098;SDS011;29762;50.086;14.364;2022-07-18T22:50:22;2.53;;;1.50;;
44098;SDS011;29762;50.086;14.364;2022-07-18T22:55:42;3.45;;;1.83;;
44098;SDS011;29762;50.086;14.364;2022-07-18T23:01:01;3.13;;;1.70;;
44098;SDS011;29762;50.086;14.364;2022-07-18T23:06:21;2.55;;;1.50;;
44098;SDS011;29762;50.086;14.364;2022-07-18T23:11:40;3.70;;;1.60;;
44098;SDS011;29762;50.086;14.364;2022-07-18T23:17:00;2.20;;;1.67;;
44098;SDS011;29762;50.086;14.364;2022-07-18T23:22:19;2.97;;;1.55;;
44098;SDS011;29762;50.086;14.364;2022-07-18T23:27:39;2.75;;;1.60;;
44098;SDS011;29762;50.086;14.364;2022-07-18T23:32:58;2.60;;;1.60;;
44098;SDS011;29762;50.086;14.364;2022-07-18T23:38:18;3.72;;;1.70;;
44098;SDS011;29762;50.086;14.364;2022-07-18T23:43:37;3.22;;;1.80;;
44098;SDS011;29762;50.086;14.364;2022-07-18T23:48:56;2.50;;;1.80;;
44098;SDS011;29762;50.086;14.364;2022-07-18T23:54:16;3.10;;;2.20;;
44098;SDS011;29762;50.086;14.364;2022-07-18T23:59:36;2.78;;;1.88;;
